Flight Track Log - Related Links

Times and Time Zones

All times are in EDT time to prevent confusion due to time zone crossing. See the N61US flight status page for this flight to view local times or setup timezone preferences in your user account.

Time Position Orientation Groundspeed Altitude Reporting Facility
EDT Latitude Longitude Course Direction KTS MPH feet Rate Location/Type
Sun 02:05:15 PM 35.0258 -80.6147 47° Northeast 76 87 1,200  Level Atlanta Center
Sun 02:05:40 PM 35.0319 -80.6067 47° Northeast 89 102 1,400 783 Climbing Atlanta Center
Sun 02:06:47 PM 35.0539 -80.5781 47° Northeast 106 122 2,400 709 Climbing Atlanta Center
Sun 02:07:47 PM 35.0764 -80.5567 38° Northeast 110 127 2,900 545 Climbing Atlanta Center
Sun 02:08:48 PM 35.1056 -80.5606 354° North 108 124 3,500 541 Climbing Atlanta Center
Sun 02:09:49 PM 35.1392 -80.5667 352° North 112 129 4,000 259 Climbing Atlanta Center
Sun 02:10:44 PM 35.1686 -80.5731 350° North 123 142 4,000  Level Atlanta Center
Sun 02:11:45 PM 35.2083 -80.5792 353° North 140 161 4,000  Level Atlanta Center
Sun 02:12:46 PM 35.2422 -80.5906 345° North 131 151 4,000 49 Level Atlanta Center
Sun 02:13:47 PM 35.2781 -80.6067 340° North 127 146 4,100  Climbing Atlanta Center
Sun 02:14:48 PM 35.3097 -80.6233 337° Northwest 133 153 4,000 -50 Descending Atlanta Center
Sun 02:15:48 PM 35.3436 -80.6372 342° North 127 146 4,000 209 Level Atlanta Center
Sun 02:16:43 PM 35.3714 -80.6589 328° Northwest 123 142 4,400 466 Climbing Atlanta Center
Sun 02:17:44 PM 35.4008 -80.6756 335° Northwest 109 125 4,900 295 Climbing Atlanta Center
Sun 02:18:45 PM 35.4286 -80.7000 324° Northwest 117 135 5,000 98 Climbing Atlanta Center
Sun 02:19:46 PM 35.4567 -80.7267 322° Northwest 142 163 5,100  Climbing Atlanta Center
Sun 02:20:47 PM 35.4847 -80.7614 315° West 138 159 5,000 -49 Descending Atlanta Center
Sun 02:21:48 PM 35.5106 -80.7911 317° Northwest 132 152 5,000  Level Atlanta Center
Sun 02:22:33 PM 35.5297 -80.8131 317° Northwest 132 152 5,000 269 Level Atlanta Center
Sun 02:22:55 PM 35.5406 -80.8256 317° Northwest 127 146 5,300 500 Climbing Atlanta Center
Sun 02:23:33 PM 35.5556 -80.8403 321° Northwest 121 139 5,500 367 Climbing Atlanta Center
Sun 02:24:33 PM 35.5769 -80.8622 320° Northwest 116 133 5,900 400 Climbing Atlanta Center
Sun 02:25:33 PM 35.6028 -80.8894 319° Northwest 116 133 6,300 400 Climbing Atlanta Center
Sun 02:26:33 PM 35.6286 -80.9192 317° Northwest 116 133 6,700 450 Climbing Atlanta Center
Sun 02:27:33 PM 35.6522 -80.9464 317° Northwest 121 139 7,200 450 Climbing Atlanta Center
Sun 02:28:33 PM 35.6736 -80.9686 320° Northwest 116 133 7,600 400 Climbing Atlanta Center
Sun 02:29:33 PM 35.6953 -80.9958 314° West 111 128 8,000 300 Climbing Atlanta Center
Sun 02:30:33 PM 35.7186 -81.0206 319° Northwest 111 128 8,200 300 Climbing Atlanta Center
Sun 02:31:33 PM 35.7403 -81.0453 317° Northwest 111 128 8,600 350 Climbing Atlanta Center
Sun 02:32:33 PM 35.7636 -81.0675 322° Northwest 111 128 8,900 300 Climbing Atlanta Center
Sun 02:33:33 PM 35.7850 -81.0897 320° Northwest 111 128 9,200 350 Climbing Atlanta Center
Sun 02:34:33 PM 35.8086 -81.1119 323° Northwest 111 128 9,600 350 Climbing Atlanta Center
Sun 02:35:33 PM 35.8300 -81.1342 320° Northwest 111 128 9,900 300 Climbing Atlanta Center
Sun 02:36:33 PM 35.8533 -81.1592 319° Northwest 111 128 10,200 150 Climbing Atlanta Center
Sun 02:37:33 PM 35.8792 -81.1889 317° Northwest 116 133 10,200 -50 Level Atlanta Center
Sun 02:38:33 PM 35.9047 -81.2161 319° Northwest 121 139 10,100 -50 Descending Atlanta Center
Sun 02:39:33 PM 35.9306 -81.2436 319° Northwest 121 139 10,100 -50 Level Atlanta Center
Sun 02:40:33 PM 35.9542 -81.2733 314° West 121 139 10,000 -50 Descending Atlanta Center
Sun 02:41:33 PM 35.9778 -81.3033 314° West 121 139 10,000  Level Atlanta Center
Sun 02:42:33 PM 36.0033 -81.3308 319° Northwest 121 139 10,000  Level Atlanta Center
Sun 02:43:33 PM 36.0292 -81.3608 317° Northwest 121 139 10,000  Level Atlanta Center
Sun 02:44:33 PM 36.0525 -81.3883 316° Northwest 121 139 10,000  Level Atlanta Center
Sun 02:45:33 PM 36.0783 -81.4156 320° Northwest 121 139 10,000  Level Atlanta Center
Sun 02:46:33 PM 36.1061 -81.4481 317° Northwest 121 139 10,000  Level Atlanta Center
Sun 02:47:33 PM 36.1336 -81.4756 321° Northwest 121 139 10,000  Level Atlanta Center
Sun 02:48:33 PM 36.1594 -81.5056 317° Northwest 121 139 10,000  Level Atlanta Center
Sun 02:49:33 PM 36.1850 -81.5331 319° Northwest 121 139 10,000  Level Atlanta Center
Sun 02:50:33 PM 36.2106 -81.5631 317° Northwest 121 139 10,000  Level Atlanta Center
Sun 02:51:33 PM 36.2383 -81.5933 319° Northwest 121 139 10,000  Level Atlanta Center
Sun 02:52:33 PM 36.2639 -81.6208 319° Northwest 121 139 10,000  Level Atlanta Center
Sun 02:53:33 PM 36.2917 -81.6508 319° Northwest 121 139 10,000  Level Atlanta Center
Sun 02:54:33 PM 36.3172 -81.6811 316° Northwest 121 139 10,000  Level Atlanta Center
Sun 02:55:33 PM 36.3450 -81.7136 317° Northwest 121 139 10,000  Level Atlanta Center
Sun 02:56:33 PM 36.3683 -81.7389 319° Northwest 121 139 10,000  Level Atlanta Center
Sun 02:57:33 PM 36.3939 -81.7692 316° Northwest 121 139 10,000  Level Atlanta Center
Sun 02:58:33 PM 36.4275 -81.7861 338° Northwest 121 139 10,000  Level Atlanta Center
Sun 02:59:33 PM 36.4611 -81.7956 347° North 121 139 10,000  Level Atlanta Center
Sun 03:01:18 PM 36.5044 -81.8583 311° West 132 152 10,000  Level Indianapolis Center
Sun 03:02:20 PM 36.5294 -81.8900 314° West 129 148 10,000  Level Indianapolis Center
Sun 03:03:21 PM 36.5556 -81.9208 317° Northwest 130 150 10,000  Level Indianapolis Center
Sun 03:04:23 PM 36.5831 -81.9508 319° Northwest 131 151 10,000  Level Indianapolis Center
Sun 03:05:25 PM 36.6106 -81.9803 319° Northwest 130 150 10,000  Level Indianapolis Center
Sun 03:06:27 PM 36.6417 -82.0144 319° Northwest 129 148 10,000  Level Indianapolis Center
Sun 03:07:29 PM 36.6689 -82.0444 319° Northwest 130 150 10,000  Level Indianapolis Center
Sun 03:08:31 PM 36.6958 -82.0728 320° Northwest 128 147 10,000  Level Indianapolis Center
Sun 03:09:09 PM 36.7144 -82.0939 318° Northwest 131 151 10,000 122 Level Atlanta Center
Sun 03:10:09 PM 36.7397 -82.1219 318° Northwest 137 158 10,200 300 Climbing Atlanta Center
Sun 03:11:09 PM 36.7611 -82.1472 317° Northwest 120 138 10,600 900 Climbing Atlanta Center
Sun 03:12:09 PM 36.7822 -82.1728 316° Northwest 112 129 12,000 397 Climbing Atlanta Center
Sun 03:13:40 PM 36.8153 -82.2108 317° Northwest 108 124 11,600 -39 Descending Indianapolis Center
Sun 03:14:42 PM 36.8356 -82.2356 316° Northwest 104 120 11,900 242 Climbing Indianapolis Center
Sun 03:15:44 PM 36.8567 -82.2586 319° Northwest 102 117 12,100 97 Climbing Indianapolis Center
Sun 03:16:46 PM 36.8794 -82.2864 316° Northwest 111 128 12,100 -48 Level Indianapolis Center
Sun 03:17:48 PM 36.9064 -82.3183 317° Northwest 128 147 12,000 -48 Descending Indianapolis Center
Sun 03:18:50 PM 36.9383 -82.3533 319° Northwest 132 152 12,000  Level Indianapolis Center
Sun 03:19:52 PM 36.9644 -82.3842 317° Northwest 129 148 12,000  Level Indianapolis Center
Sun 03:20:54 PM 36.9900 -82.4144 317° Northwest 127 146 12,000  Level Indianapolis Center
Sun 03:21:56 PM 37.0158 -82.4444 317° Northwest 127 146 12,000  Level Indianapolis Center
Sun 03:22:58 PM 37.0408 -82.4761 315° West 127 146 12,000  Level Indianapolis Center
Sun 03:24:00 PM 37.0714 -82.5108 318° Northwest 127 146 12,000  Level Indianapolis Center
Sun 03:25:02 PM 37.0975 -82.5406 318° Northwest 127 146 12,000  Level Indianapolis Center
Sun 03:26:04 PM 37.1236 -82.5706 318° Northwest 128 147 12,000  Level Indianapolis Center
Sun 03:27:06 PM 37.1497 -82.6019 316° Northwest 129 148 12,000  Level Indianapolis Center
Sun 03:28:08 PM 37.1761 -82.6331 317° Northwest 130 150 12,000  Level Indianapolis Center
Sun 03:29:10 PM 37.2056 -82.6711 314° West 130 150 12,000  Level Indianapolis Center
Sun 03:30:12 PM 37.2331 -82.7033 317° Northwest 133 153 12,000  Level Indianapolis Center
Sun 03:31:14 PM 37.2608 -82.7347 318° Northwest 135 155 12,000  Level Indianapolis Center
Sun 03:32:17 PM 37.2875 -82.7644 318° Northwest 131 151 12,000  Level Indianapolis Center
Sun 03:33:19 PM 37.3147 -82.7972 316° Northwest 133 153 12,000  Level Indianapolis Center
Sun 03:34:21 PM 37.3464 -82.8339 317° Northwest 133 153 12,000  Level Indianapolis Center
Sun 03:35:23 PM 37.3739 -82.8653 318° Northwest 134 154 12,000  Level Indianapolis Center
Sun 03:36:25 PM 37.4014 -82.8964 318° Northwest 133 153 12,000  Level Indianapolis Center
Sun 03:37:27 PM 37.4278 -82.9258 318° Northwest 128 147 12,000  Level Indianapolis Center
Sun 03:38:29 PM 37.4539 -82.9581 316° Northwest 130 150 12,000  Level Indianapolis Center
Sun 03:39:31 PM 37.4847 -82.9950 316° Northwest 131 151 12,000  Level Indianapolis Center
Sun 03:40:33 PM 37.5114 -83.0269 316° Northwest 131 151 12,000  Level Indianapolis Center
Sun 03:41:35 PM 37.5383 -83.0586 317° Northwest 133 153 12,000  Level Indianapolis Center
Sun 03:42:37 PM 37.5656 -83.0903 317° Northwest 134 154 12,000  Level Indianapolis Center
Sun 03:43:39 PM 37.5933 -83.1214 318° Northwest 133 153 12,000  Level Indianapolis Center
Sun 03:44:41 PM 37.6242 -83.1594 316° Northwest 134 154 12,000  Level Indianapolis Center
Sun 03:45:43 PM 37.6508 -83.1919 316° Northwest 133 153 12,000  Level Indianapolis Center
Sun 03:46:45 PM 37.6775 -83.2239 317° Northwest 133 153 12,000  Level Indianapolis Center
Sun 03:47:47 PM 37.7033 -83.2547 317° Northwest 129 148 12,000  Level Indianapolis Center
Sun 03:48:49 PM 37.7294 -83.2864 316° Northwest 130 150 12,000  Level Indianapolis Center
Sun 03:49:51 PM 37.7556 -83.3194 315° West 133 153 12,000  Level Indianapolis Center
Sun 03:50:53 PM 37.7867 -83.3550 318° Northwest 131 151 12,000  Level Indianapolis Center
Sun 03:51:55 PM 37.8128 -83.3856 317° Northwest 128 147 12,000  Level Indianapolis Center
Sun 03:52:57 PM 37.8386 -83.4167 316° Northwest 129 148 12,000  Level Indianapolis Center
Sun 03:53:59 PM 37.8650 -83.4475 317° Northwest 131 151 12,000  Level Indianapolis Center
Sun 03:55:01 PM 37.8917 -83.4800 316° Northwest 132 152 12,000  Level Indianapolis Center
Sun 03:56:03 PM 37.9219 -83.5167 316° Northwest 130 150 12,000  Level Indianapolis Center
Sun 03:57:05 PM 37.9472 -83.5478 316° Northwest 128 147 12,000  Level Indianapolis Center
Sun 03:58:07 PM 37.9739 -83.5783 318° Northwest 128 147 12,000  Level Indianapolis Center
Sun 03:59:09 PM 37.9983 -83.6103 314° West 128 147 12,000  Level Indianapolis Center
Sun 04:00:11 PM 38.0253 -83.6389 320° Northwest 127 146 12,000  Level Indianapolis Center
Sun 04:01:13 PM 38.0506 -83.6714 315° West 127 146 12,000  Level Indianapolis Center
Sun 04:02:15 PM 38.0808 -83.7064 318° Northwest 127 146 12,000  Level Indianapolis Center
Sun 04:03:17 PM 38.1069 -83.7381 316° Northwest 128 147 12,000  Level Indianapolis Center
Sun 04:04:19 PM 38.1397 -83.7569 336° Northwest 128 147 12,000  Level Indianapolis Center
Sun 04:05:21 PM 38.1722 -83.7794 331° Northwest 131 151 12,000  Level Indianapolis Center
Sun 04:06:23 PM 38.1981 -83.8094 318° Northwest 129 148 12,000  Level Indianapolis Center
Sun 04:07:25 PM 38.2278 -83.8489 314° West 130 150 12,000  Level Indianapolis Center
Sun 04:08:27 PM 38.2528 -83.8811 315° West 130 150 12,000  Level Indianapolis Center
Sun 04:09:29 PM 38.2775 -83.9139 314° West 129 148 12,000  Level Indianapolis Center
Sun 04:10:31 PM 38.3028 -83.9461 315° West 128 147 12,000  Level Indianapolis Center
Sun 04:11:33 PM 38.3292 -83.9775 317° Northwest 130 150 12,000  Level Indianapolis Center
Sun 04:12:35 PM 38.3547 -84.0083 317° Northwest 128 147 12,000 48 Level Indianapolis Center
Sun 04:13:37 PM 38.3850 -84.0436 318° Northwest 126 145 12,100 48 Climbing Indianapolis Center
Sun 04:14:39 PM 38.4097 -84.0753 315° West 126 145 12,100  Level Indianapolis Center
Sun 04:15:41 PM 38.4364 -84.1056 318° Northwest 128 147 12,100  Level Indianapolis Center
Sun 04:16:43 PM 38.4628 -84.1372 317° Northwest 130 150 12,100  Level Indianapolis Center
Sun 04:17:45 PM 38.4886 -84.1678 317° Northwest 127 146 12,100  Level Indianapolis Center
Sun 04:18:47 PM 38.5136 -84.2028 312° West 133 153 12,100  Level Indianapolis Center
Sun 04:19:49 PM 38.5431 -84.2372 318° Northwest 126 145 12,100  Level Indianapolis Center
Sun 04:20:51 PM 38.5683 -84.2703 314° West 128 147 12,100  Level Indianapolis Center
Sun 04:21:53 PM 38.5922 -84.3014 314° West 124 143 12,100  Level Indianapolis Center
Sun 04:22:54 PM 38.6167 -84.3322 315° West 123 142 12,100  Level Indianapolis Center
Sun 04:23:56 PM 38.6422 -84.3647 315° West 128 147 12,100 -48 Level Indianapolis Center
Sun 04:24:58 PM 38.6664 -84.3961 315° West 127 146 12,000 -48 Descending Indianapolis Center
Sun 04:26:00 PM 38.6922 -84.4250 319° Northwest 124 143 12,000  Level Indianapolis Center
Sun 04:27:02 PM 38.7217 -84.4631 315° West 126 145 12,000  Level Indianapolis Center
Sun 04:28:04 PM 38.7478 -84.4936 318° Northwest 126 145 12,000  Level Indianapolis Center
Sun 04:29:06 PM 38.7725 -84.5264 314° West 127 146 12,000  Level Indianapolis Center
Sun 04:30:08 PM 38.7981 -84.5597 315° West 130 150 12,000  Level Indianapolis Center
Sun 04:31:09 PM 38.8228 -84.5931 314° West 129 148 12,000  Level Indianapolis Center
Sun 04:32:11 PM 38.8492 -84.6225 319° Northwest 129 148 12,000  Level Indianapolis Center
Sun 04:33:23 PM 38.8833 -84.6667 315° West 129 148 12,000  Level Cincinnati TRACON
Sun 04:34:23 PM 38.9167 -84.7000 322° Northwest 127 146 12,000  Level Cincinnati TRACON
Sun 04:35:17 PM 38.9333 -84.7167 322° Northwest 128 147 12,000  Level Cincinnati TRACON
Sun 04:36:11 PM 38.9500 -84.7500 303° West 131 151 12,000  Level Cincinnati TRACON
Sun 04:37:05 PM 38.9833 -84.7833 322° Northwest 131 151 12,000  Level Cincinnati TRACON
Sun 04:38:05 PM 39.0000 -84.8167 303° West 130 150 12,000  Level Cincinnati TRACON
Sun 04:39:05 PM 39.0167 -84.8500 303° West 129 148 12,000  Level Cincinnati TRACON
Sun 04:40:05 PM 39.0500 -84.9000 311° West 131 151 12,000  Level Cincinnati TRACON
Sun 04:40:59 PM 39.0667 -84.9333 303° West 130 150 12,000  Level Cincinnati TRACON
Sun 04:41:59 PM 39.0833 -84.9667 303° West 129 148 12,000  Level Cincinnati TRACON
Sun 04:42:30 PM 39.0922 -84.9856 301° West 131 151 12,000  Level Indianapolis Center
Sun 04:43:32 PM 39.1119 -85.0236 304° West 128 147 12,000  Level Indianapolis Center
Sun 04:44:34 PM 39.1347 -85.0608 308° West 131 151 12,000  Level Indianapolis Center
Sun 04:45:36 PM 39.1603 -85.1067 306° West 132 152 12,000  Level Indianapolis Center
Sun 04:46:38 PM 39.1817 -85.1442 306° West 131 151 12,000  Level Indianapolis Center
Sun 04:47:40 PM 39.2019 -85.1814 305° West 129 148 12,000  Level Indianapolis Center
Sun 04:48:42 PM 39.2219 -85.2189 305° West 129 148 12,000  Level Indianapolis Center
Sun 04:49:44 PM 39.2442 -85.2572 307° West 132 152 12,000  Level Indianapolis Center
Sun 04:50:46 PM 39.2653 -85.2939 307° West 129 148 12,000  Level Indianapolis Center
Sun 04:51:48 PM 39.2906 -85.3378 307° West 129 148 12,000  Level Indianapolis Center
Sun 04:52:50 PM 39.3114 -85.3756 305° West 130 150 12,000  Level Indianapolis Center
Sun 04:53:53 PM 39.3325 -85.4136 306° West 130 150 12,000  Level Indianapolis Center
Sun 04:54:55 PM 39.3539 -85.4489 308° West 127 146 12,000  Level Indianapolis Center
Sun 04:55:57 PM 39.3803 -85.4797 318° Northwest 127 146 12,000  Level Indianapolis Center
Sun 04:56:59 PM 39.4117 -85.5186 316° Northwest 130 150 12,000  Level Indianapolis Center
Sun 04:58:01 PM 39.4383 -85.5503 317° Northwest 131 151 12,000  Level Indianapolis Center
Sun 04:59:03 PM 39.4647 -85.5819 317° Northwest 130 150 12,000  Level Indianapolis Center
Sun 05:00:05 PM 39.4897 -85.6142 315° West 128 147 12,000  Level Indianapolis Center
Sun 05:01:07 PM 39.5136 -85.6456 315° West 125 144 12,000  Level Indianapolis Center
Sun 05:02:09 PM 39.5394 -85.6772 317° Northwest 128 147 12,000  Level Indianapolis Center
Sun 05:03:11 PM 39.5697 -85.7139 317° Northwest 126 145 12,000  Level Indianapolis Center
Sun 05:04:13 PM 39.5950 -85.7472 315° West 130 150 12,000  Level Indianapolis Center
Sun 05:05:15 PM 39.6211 -85.7775 318° Northwest 127 146 12,000  Level Indianapolis Center
Sun 05:06:17 PM 39.6456 -85.8089 315° West 127 146 12,000  Level Indianapolis Center
Sun 05:07:19 PM 39.6706 -85.8417 315° West 128 147 12,000  Level Indianapolis Center
Sun 05:08:21 PM 39.7014 -85.8783 318° Northwest 126 145 12,000  Level Indianapolis Center
Sun 05:09:22 PM 39.7269 -85.9114 315° West 130 150 12,000  Level Indianapolis Center
Sun 05:10:24 PM 39.7519 -85.9428 316° Northwest 127 146 12,000  Level Indianapolis Center
Sun 05:11:26 PM 39.7769 -85.9750 315° West 128 147 12,000  Level Indianapolis Center
Sun 05:12:28 PM 39.8031 -86.0061 318° Northwest 127 146 12,000  Level Indianapolis Center
Sun 05:13:30 PM 39.8294 -86.0381 317° Northwest 130 150 12,000  Level Indianapolis Center
Sun 05:14:32 PM 39.8611 -86.0747 318° Northwest 128 147 12,000  Level Indianapolis Center
Sun 05:15:34 PM 39.8858 -86.1075 315° West 128 147 12,000  Level Indianapolis Center
Sun 05:16:35 PM 39.9114 -86.1394 316° Northwest 128 147 12,000  Level Indianapolis Center
Sun 05:17:37 PM 39.9364 -86.1708 316° Northwest 126 145 12,000  Level Indianapolis Center
Sun 05:18:39 PM 39.9614 -86.2044 314° West 130 150 12,000  Level Indianapolis Center
Sun 05:19:41 PM 39.9939 -86.2447 316° Northwest 134 154 12,000  Level Indianapolis Center
Sun 05:20:43 PM 40.0211 -86.2786 316° Northwest 136 157 12,000  Level Indianapolis Center
Sun 05:21:44 PM 40.0469 -86.3125 315° West 133 153 12,000  Level Indianapolis Center
Sun 05:22:46 PM 40.0733 -86.3458 316° Northwest 133 153 12,000  Level Indianapolis Center
Sun 05:23:48 PM 40.1011 -86.3792 317° Northwest 135 155 12,000  Level Indianapolis Center
Sun 05:24:50 PM 40.1272 -86.4125 316° Northwest 133 153 12,000  Level Indianapolis Center
Sun 05:25:37 PM 40.1486 -86.4394 316° Northwest 131 151 12,000  Level Chicago Center
Sun 05:26:39 PM 40.1733 -86.4725 314° West 129 148 12,000  Level Chicago Center
Sun 05:27:41 PM 40.2069 -86.5117 318° Northwest 133 153 12,000  Level Chicago Center
Sun 05:28:43 PM 40.2317 -86.5450 314° West 129 148 12,000  Level Chicago Center
Sun 05:29:45 PM 40.2578 -86.5789 315° West 131 151 12,000  Level Chicago Center
Sun 05:30:47 PM 40.2833 -86.6119 315° West 131 151 12,000  Level Chicago Center
Sun 05:31:49 PM 40.3106 -86.6461 316° Northwest 134 154 12,000  Level Chicago Center
Sun 05:32:51 PM 40.3414 -86.6864 315° West 133 153 12,000  Level Chicago Center
Sun 05:33:54 PM 40.3642 -86.7219 310° West 128 147 12,000  Level Chicago Center
Sun 05:34:56 PM 40.3825 -86.7628 301° West 129 148 12,000  Level Chicago Center
Sun 05:35:58 PM 40.4028 -86.8033 303° West 131 151 12,000  Level Chicago Center
Sun 05:37:00 PM 40.4233 -86.8417 305° West 129 148 12,000  Level Chicago Center
Sun 05:38:02 PM 40.4494 -86.8892 306° West 133 153 12,000  Level Chicago Center
Sun 05:39:04 PM 40.4722 -86.9258 309° West 132 152 12,000  Level Chicago Center
Sun 05:40:06 PM 40.4953 -86.9625 310° West 131 151 12,000  Level Chicago Center
Sun 05:41:08 PM 40.5164 -87.0006 306° West 130 150 12,000  Level Chicago Center
Sun 05:42:10 PM 40.5386 -87.0392 307° West 132 152 12,000  Level Chicago Center
Sun 05:43:12 PM 40.5614 -87.0786 307° West 134 154 12,000  Level Chicago Center
Sun 05:44:14 PM 40.5861 -87.1275 304° West 135 155 12,000  Level Chicago Center
Sun 05:45:17 PM 40.6078 -87.1664 306° West 133 153 12,000  Level Chicago Center
Sun 05:46:19 PM 40.6303 -87.2039 308° West 132 152 12,000  Level Chicago Center
Sun 05:47:21 PM 40.6503 -87.2450 303° West 133 153 12,000  Level Chicago Center
Sun 05:48:23 PM 40.6756 -87.2917 306° West 131 151 12,000  Level Chicago Center
Sun 05:49:25 PM 40.6958 -87.3300 305° West 129 148 12,000  Level Chicago Center
Sun 05:50:27 PM 40.7167 -87.3708 304° West 132 152 12,000  Level Chicago Center
Sun 05:51:29 PM 40.7372 -87.4100 305° West 132 152 12,000  Level Chicago Center
Sun 05:52:31 PM 40.7583 -87.4497 305° West 132 152 12,000  Level Chicago Center
Sun 05:53:33 PM 40.7844 -87.4972 306° West 134 154 12,000  Level Chicago Center
Sun 05:54:35 PM 40.8056 -87.5364 305° West 133 153 12,000  Level Chicago Center
Sun 05:55:37 PM 40.8267 -87.5758 305° West 131 151 12,000  Level Chicago Center
Sun 05:56:40 PM 40.8481 -87.6136 307° West 129 148 12,000  Level Chicago Center
Sun 05:57:42 PM 40.8692 -87.6544 304° West 133 153 12,000  Level Chicago Center
Sun 05:58:44 PM 40.8908 -87.6939 306° West 134 154 12,000  Level Chicago Center
Sun 05:59:46 PM 40.9153 -87.7406 305° West 130 150 12,000  Level Chicago Center
Sun 06:00:48 PM 40.9364 -87.7800 305° West 131 151 12,000  Level Chicago Center
Sun 06:01:50 PM 40.9578 -87.8181 307° West 130 150 12,000  Level Chicago Center
Sun 06:02:52 PM 40.9778 -87.8578 304° West 130 150 12,000 48 Level Chicago Center
Sun 06:03:54 PM 40.9989 -87.8969 306° West 131 151 12,100 -242 Climbing Chicago Center
Sun 06:04:56 PM 41.0400 -87.9286 330° Northwest 145 167 11,500 -629 Descending Chicago Center
Sun 06:05:58 PM 41.0781 -87.9561 331° Northwest 155 178 10,800 -823 Descending Chicago Center
Sun 06:07:00 PM 41.1164 -87.9828 332° Northwest 156 180 9,800 -1,016 Descending Chicago Center
Sun 06:08:02 PM 41.1539 -88.0100 331° Northwest 156 180 8,700 -1,008 Descending Chicago Center
Sun 06:09:05 PM 41.1922 -88.0383 331° Northwest 156 180 7,700 -1,056 Descending Chicago Center
Sun 06:10:07 PM 41.2367 -88.0744 329° Northwest 157 181 6,500 -1,113 Descending Chicago Center
Sun 06:11:09 PM 41.2731 -88.1047 328° Northwest 155 178 5,400 -1,016 Descending Chicago Center
Sun 06:12:11 PM 41.3097 -88.1347 328° Northwest 154 177 4,400 -629 Descending Chicago Center
Sun 06:13:13 PM 41.3467 -88.1656 328° Northwest 156 180 4,100 -145 Descending Chicago Center
Sun 06:14:15 PM 41.3819 -88.1936 329° Northwest 150 173 4,100  Level Chicago Center
Sun 06:15:17 PM 41.4175 -88.2217 329° Northwest 148 170 4,100  Level Chicago Center
Sun 06:16:19 PM 41.4533 -88.2500 329° Northwest 149 171 4,100  Level Chicago Center
Sun 06:17:21 PM 41.4961 -88.2817 331° Northwest 147 169 4,100  Level Chicago Center
Sun 06:18:23 PM 41.5322 -88.3092 330° Northwest 148 170 4,100  Level Chicago Center
Sun 06:19:25 PM 41.5683 -88.3367 330° Northwest 150 173 4,100  Level Chicago Center
Sun 06:20:27 PM 41.6036 -88.3636 330° Northwest 148 170 4,100  Level Chicago Center
Sun 06:21:29 PM 41.6394 -88.3911 330° Northwest 148 170 4,100  Level Chicago Center
Sun 06:22:32 PM 41.6753 -88.4172 331° Northwest 148 170 4,100  Level Chicago Center
Sun 06:23:34 PM 41.7172 -88.4506 329° Northwest 147 169 4,100  Level Chicago Center
Sun 06:24:36 PM 41.7528 -88.4775 331° Northwest 147 169 4,100  Level Chicago Center
Sun 06:25:38 PM 41.7878 -88.5047 330° Northwest 146 168 4,100 -145 Level Chicago Center
Sun 06:26:40 PM 41.8228 -88.5322 330° Northwest 147 169 3,800 -387 Descending Chicago Center
Sun 06:27:42 PM 41.8608 -88.5631 329° Northwest 153 176 3,300 -339 Descending Chicago Center
Sun 06:28:44 PM 41.9056 -88.5975 330° Northwest 155 178 3,100 -97 Descending Chicago Center
Sun 06:29:46 PM 41.9408 -88.6225 332° Northwest 150 173 3,100  Level Chicago Center
Sun 06:30:48 PM 41.9750 -88.6497 329° Northwest 147 169 3,100  Level Chicago Center
Sun 06:31:50 PM 42.0103 -88.6439 North 147 169 3,100  Level Chicago Center
Sun 06:32:52 PM 42.0450 -88.6222 25° Northeast 142 163 3,100  Level Chicago Center
Sun 06:33:54 PM 42.0889 -88.5989 22° Northeast 141 162 3,100 -48 Level Chicago Center
Sun 06:34:56 PM 42.1244 -88.5794 22° Northeast 140 161 3,000 -240 Descending Chicago Center
Sun 06:35:59 PM 42.1600 -88.5603 22° Northeast 140 161 2,600 -192 Descending Chicago Center
Sun 06:37:01 PM 42.1772 -88.5322 50° Northeast 132 152 2,600  Level Chicago Center
Sun 06:38:03 PM 42.1811 -88.4939 82° East 115 132 2,600  Level Chicago Center
Sun 06:39:05 PM 42.1886 -88.4528 76° East 111 128 2,600 -290 Level Chicago Center
Sun 06:40:07 PM 42.1950 -88.4050 80° East 110 127 2,000 -435 Descending Chicago Center
Sun 06:41:09 PM 42.2006 -88.3678 79° East 110 127 1,700 -273 Descending Chicago Center
Sun 06:43:25 PM 42.2167 -88.3167 67° East 82 94 1,100 -265 Descending Chicago TRACON
Sun 06:45:00 PM 42.2068 -88.3230 98° East  Level Estimated
Sun 06:52:00 PM 42.2068 -88.3230 270° West  Level Estimated
Sun 06:53:00 PM 42.2068 -88.3230 251° West  Level Estimated
Sun 06:54:00 PM 42.2068 -88.3230 270° West  Level Estimated

Login

Don't have an account? Register now (free) for customized features, flight alerts, and more!